sensor_id;sensor_type;location;lat;lon;timestamp;P1;durP1;ratioP1;P2;durP2;ratioP2
49147;SDS011;41980;45.550;12.070;2022-08-19T00:04:30;5.82;;;1.50;;
49147;SDS011;41980;45.550;12.070;2022-08-19T00:10:37;7.05;;;1.83;;
49147;SDS011;41980;45.550;12.070;2022-08-19T00:16:39;6.10;;;1.30;;
49147;SDS011;41980;45.550;12.070;2022-08-19T00:22:43;4.90;;;1.85;;
49147;SDS011;41980;45.550;12.070;2022-08-19T00:28:46;5.90;;;1.70;;
49147;SDS011;41980;45.550;12.070;2022-08-19T00:34:48;3.97;;;1.33;;
49147;SDS011;41980;45.550;12.070;2022-08-19T00:40:50;5.38;;;1.23;;
49147;SDS011;41980;45.550;12.070;2022-08-19T00:46:56;2.65;;;0.93;;
49147;SDS011;41980;45.550;12.070;2022-08-19T00:53:00;2.97;;;0.85;;
49147;SDS011;41980;45.550;12.070;2022-08-19T00:59:05;2.83;;;1.05;;
49147;SDS011;41980;45.550;12.070;2022-08-19T01:05:14;5.25;;;1.42;;
49147;SDS011;41980;45.550;12.070;2022-08-19T01:11:21;4.35;;;1.33;;
49147;SDS011;41980;45.550;12.070;2022-08-19T01:17:23;5.65;;;1.45;;
49147;SDS011;41980;45.550;12.070;2022-08-19T01:23:25;7.85;;;1.77;;
49147;SDS011;41980;45.550;12.070;2022-08-19T01:29:44;7.68;;;2.42;;
49147;SDS011;41980;45.550;12.070;2022-08-19T01:35:47;4.43;;;1.55;;
49147;SDS011;41980;45.550;12.070;2022-08-19T01:41:52;7.13;;;2.10;;
49147;SDS011;41980;45.550;12.070;2022-08-19T01:47:55;4.43;;;1.35;;
49147;SDS011;41980;45.550;12.070;2022-08-19T01:53:58;8.30;;;2.65;;
49147;SDS011;41980;45.550;12.070;2022-08-19T02:00:00;7.25;;;2.22;;
49147;SDS011;41980;45.550;12.070;2022-08-19T02:06:13;6.57;;;1.80;;
49147;SDS011;41980;45.550;12.070;2022-08-19T02:12:18;4.60;;;1.08;;
49147;SDS011;41980;45.550;12.070;2022-08-19T02:18:22;3.17;;;0.90;;
49147;SDS011;41980;45.550;12.070;2022-08-19T02:24:33;2.92;;;1.10;;
49147;SDS011;41980;45.550;12.070;2022-08-19T02:31:00;7.45;;;2.72;;
49147;SDS011;41980;45.550;12.070;2022-08-19T02:37:12;9.13;;;2.50;;
49147;SDS011;41980;45.550;12.070;2022-08-19T02:43:30;7.72;;;2.60;;
49147;SDS011;41980;45.550;12.070;2022-08-19T02:49:45;6.10;;;2.47;;
49147;SDS011;41980;45.550;12.070;2022-08-19T02:55:47;5.65;;;2.28;;
49147;SDS011;41980;45.550;12.070;2022-08-19T03:01:49;5.68;;;2.10;;
49147;SDS011;41980;45.550;12.070;2022-08-19T03:07:52;8.65;;;3.42;;
49147;SDS011;41980;45.550;12.070;2022-08-19T03:13:55;8.57;;;2.30;;
49147;SDS011;41980;45.550;12.070;2022-08-19T03:19:58;6.80;;;1.92;;
49147;SDS011;41980;45.550;12.070;2022-08-19T03:26:03;5.88;;;2.30;;
49147;SDS011;41980;45.550;12.070;2022-08-19T03:32:09;3.90;;;1.30;;
49147;SDS011;41980;45.550;12.070;2022-08-19T03:38:11;3.45;;;1.50;;
49147;SDS011;41980;45.550;12.070;2022-08-19T03:44:14;4.20;;;1.15;;
49147;SDS011;41980;45.550;12.070;2022-08-19T03:50:18;2.63;;;0.90;;
49147;SDS011;41980;45.550;12.070;2022-08-19T03:56:21;2.40;;;0.93;;
49147;SDS011;41980;45.550;12.070;2022-08-19T04:02:23;3.67;;;1.00;;
49147;SDS011;41980;45.550;12.070;2022-08-19T04:08:25;2.85;;;1.08;;
49147;SDS011;41980;45.550;12.070;2022-08-19T04:14:28;1.65;;;0.70;;
49147;SDS011;41980;45.550;12.070;2022-08-19T04:20:37;2.72;;;0.85;;
49147;SDS011;41980;45.550;12.070;2022-08-19T04:26:45;1.67;;;0.60;;
49147;SDS011;41980;45.550;12.070;2022-08-19T04:32:47;2.10;;;0.90;;
49147;SDS011;41980;45.550;12.070;2022-08-19T04:38:53;4.25;;;1.17;;
49147;SDS011;41980;45.550;12.070;2022-08-19T04:44:58;2.00;;;0.80;;
49147;SDS011;41980;45.550;12.070;2022-08-19T04:51:00;3.17;;;0.98;;
49147;SDS011;41980;45.550;12.070;2022-08-19T04:57:02;3.78;;;1.00;;
49147;SDS011;41980;45.550;12.070;2022-08-19T05:03:07;4.05;;;0.85;;
49147;SDS011;41980;45.550;12.070;2022-08-19T05:09:09;3.28;;;1.00;;
49147;SDS011;41980;45.550;12.070;2022-08-19T05:15:11;1.80;;;0.80;;
49147;SDS011;41980;45.550;12.070;2022-08-19T05:21:15;2.90;;;0.70;;
49147;SDS011;41980;45.550;12.070;2022-08-19T05:27:21;2.17;;;0.73;;
49147;SDS011;41980;45.550;12.070;2022-08-19T05:33:23;2.83;;;0.82;;
49147;SDS011;41980;45.550;12.070;2022-08-19T05:39:27;3.33;;;0.80;;
49147;SDS011;41980;45.550;12.070;2022-08-19T05:45:31;3.15;;;0.82;;
49147;SDS011;41980;45.550;12.070;2022-08-19T05:51:34;1.67;;;0.60;;
49147;SDS011;41980;45.550;12.070;2022-08-19T05:57:38;3.42;;;0.80;;
49147;SDS011;41980;45.550;12.070;2022-08-19T06:03:40;3.40;;;0.77;;
49147;SDS011;41980;45.550;12.070;2022-08-19T06:09:43;2.22;;;1.00;;
49147;SDS011;41980;45.550;12.070;2022-08-19T06:15:45;4.30;;;0.85;;
49147;SDS011;41980;45.550;12.070;2022-08-19T06:21:49;5.13;;;1.27;;
49147;SDS011;41980;45.550;12.070;2022-08-19T06:27:52;4.03;;;1.05;;
49147;SDS011;41980;45.550;12.070;2022-08-19T06:33:54;2.53;;;0.80;;
49147;SDS011;41980;45.550;12.070;2022-08-19T06:39:56;2.40;;;1.08;;
49147;SDS011;41980;45.550;12.070;2022-08-19T06:45:58;2.78;;;0.88;;
49147;SDS011;41980;45.550;12.070;2022-08-19T06:52:02;3.92;;;0.82;;
49147;SDS011;41980;45.550;12.070;2022-08-19T06:58:05;2.92;;;0.75;;
49147;SDS011;41980;45.550;12.070;2022-08-19T07:04:07;3.40;;;1.13;;
49147;SDS011;41980;45.550;12.070;2022-08-19T07:10:10;1.40;;;0.60;;
49147;SDS011;41980;45.550;12.070;2022-08-19T07:16:14;4.75;;;0.80;;
49147;SDS011;41980;45.550;12.070;2022-08-19T07:22:18;4.10;;;0.95;;
49147;SDS011;41980;45.550;12.070;2022-08-19T07:28:23;3.72;;;0.90;;
49147;SDS011;41980;45.550;12.070;2022-08-19T07:34:26;4.13;;;1.10;;
49147;SDS011;41980;45.550;12.070;2022-08-19T07:40:30;1.92;;;0.60;;
49147;SDS011;41980;45.550;12.070;2022-08-19T07:46:34;2.65;;;0.65;;
49147;SDS011;41980;45.550;12.070;2022-08-19T07:52:39;3.33;;;0.63;;
49147;SDS011;41980;45.550;12.070;2022-08-19T07:58:42;1.70;;;0.70;;
49147;SDS011;41980;45.550;12.070;2022-08-19T08:04:46;2.05;;;0.50;;
49147;SDS011;41980;45.550;12.070;2022-08-19T08:10:51;1.75;;;0.60;;
49147;SDS011;41980;45.550;12.070;2022-08-19T08:16:53;3.70;;;0.60;;
49147;SDS011;41980;45.550;12.070;2022-08-19T08:22:55;1.60;;;0.47;;
49147;SDS011;41980;45.550;12.070;2022-08-19T08:29:00;1.63;;;0.50;;
49147;SDS011;41980;45.550;12.070;2022-08-19T08:35:04;2.35;;;0.73;;
49147;SDS011;41980;45.550;12.070;2022-08-19T08:41:10;3.70;;;0.80;;
49147;SDS011;41980;45.550;12.070;2022-08-19T08:47:21;3.15;;;0.80;;
49147;SDS011;41980;45.550;12.070;2022-08-19T08:53:26;2.20;;;0.60;;
49147;SDS011;41980;45.550;12.070;2022-08-19T08:59:30;4.95;;;1.17;;
49147;SDS011;41980;45.550;12.070;2022-08-19T09:05:39;4.72;;;1.00;;
49147;SDS011;41980;45.550;12.070;2022-08-19T09:11:55;2.75;;;0.77;;
49147;SDS011;41980;45.550;12.070;2022-08-19T09:18:02;1.40;;;0.68;;
49147;SDS011;41980;45.550;12.070;2022-08-19T09:24:06;3.50;;;0.77;;
49147;SDS011;41980;45.550;12.070;2022-08-19T09:30:09;2.20;;;0.50;;
49147;SDS011;41980;45.550;12.070;2022-08-19T09:36:15;3.60;;;0.80;;
49147;SDS011;41980;45.550;12.070;2022-08-19T09:42:19;2.03;;;0.85;;
49147;SDS011;41980;45.550;12.070;2022-08-19T09:48:21;3.40;;;0.70;;
49147;SDS011;41980;45.550;12.070;2022-08-19T09:54:23;1.67;;;0.50;;
49147;SDS011;41980;45.550;12.070;2022-08-19T10:00:25;1.48;;;0.60;;
49147;SDS011;41980;45.550;12.070;2022-08-19T10:06:28;2.45;;;0.90;;
49147;SDS011;41980;45.550;12.070;2022-08-19T10:12:34;1.48;;;0.43;;
49147;SDS011;41980;45.550;12.070;2022-08-19T10:18:36;2.40;;;0.70;;
49147;SDS011;41980;45.550;12.070;2022-08-19T10:24:38;2.58;;;0.75;;
49147;SDS011;41980;45.550;12.070;2022-08-19T10:30:41;2.10;;;0.70;;
49147;SDS011;41980;45.550;12.070;2022-08-19T10:36:43;2.00;;;0.60;;
49147;SDS011;41980;45.550;12.070;2022-08-19T10:42:44;2.08;;;0.50;;
49147;SDS011;41980;45.550;12.070;2022-08-19T10:48:46;3.67;;;1.13;;
49147;SDS011;41980;45.550;12.070;2022-08-19T10:54:50;2.17;;;0.75;;
49147;SDS011;41980;45.550;12.070;2022-08-19T11:00:56;1.90;;;0.77;;
49147;SDS011;41980;45.550;12.070;2022-08-19T11:06:59;2.53;;;0.63;;
49147;SDS011;41980;45.550;12.070;2022-08-19T11:13:01;2.15;;;0.60;;
49147;SDS011;41980;45.550;12.070;2022-08-19T11:19:04;2.13;;;0.60;;
49147;SDS011;41980;45.550;12.070;2022-08-19T11:25:09;1.45;;;0.47;;
49147;SDS011;41980;45.550;12.070;2022-08-19T11:31:13;1.88;;;0.50;;
49147;SDS011;41980;45.550;12.070;2022-08-19T11:37:17;3.03;;;0.70;;
49147;SDS011;41980;45.550;12.070;2022-08-19T11:43:19;1.33;;;0.43;;
49147;SDS011;41980;45.550;12.070;2022-08-19T11:49:21;1.38;;;0.47;;
49147;SDS011;41980;45.550;12.070;2022-08-19T11:55:23;1.98;;;0.65;;
49147;SDS011;41980;45.550;12.070;2022-08-19T12:01:25;1.50;;;0.50;;
49147;SDS011;41980;45.550;12.070;2022-08-19T12:07:28;1.95;;;0.60;;
49147;SDS011;41980;45.550;12.070;2022-08-19T12:13:34;3.00;;;0.75;;
49147;SDS011;41980;45.550;12.070;2022-08-19T12:19:37;3.17;;;0.77;;
49147;SDS011;41980;45.550;12.070;2022-08-19T12:31:52;2.78;;;0.60;;
49147;SDS011;41980;45.550;12.070;2022-08-19T12:37:54;3.58;;;0.88;;
49147;SDS011;41980;45.550;12.070;2022-08-19T12:43:56;3.88;;;1.13;;
49147;SDS011;41980;45.550;12.070;2022-08-19T12:49:59;3.05;;;0.88;;
49147;SDS011;41980;45.550;12.070;2022-08-19T12:56:02;3.15;;;0.50;;
49147;SDS011;41980;45.550;12.070;2022-08-19T13:02:04;1.48;;;0.52;;
49147;SDS011;41980;45.550;12.070;2022-08-19T13:08:07;1.70;;;0.77;;
49147;SDS011;41980;45.550;12.070;2022-08-19T13:14:09;3.40;;;0.98;;
49147;SDS011;41980;45.550;12.070;2022-08-19T13:20:12;1.77;;;0.70;;
49147;SDS011;41980;45.550;12.070;2022-08-19T13:26:14;3.08;;;0.75;;
49147;SDS011;41980;45.550;12.070;2022-08-19T13:32:17;3.95;;;0.60;;
49147;SDS011;41980;45.550;12.070;2022-08-19T13:38:22;2.17;;;0.80;;
49147;SDS011;41980;45.550;12.070;2022-08-19T13:44:25;2.33;;;0.50;;
49147;SDS011;41980;45.550;12.070;2022-08-19T13:50:30;0.98;;;0.30;;
49147;SDS011;41980;45.550;12.070;2022-08-19T13:56:34;2.20;;;0.73;;
49147;SDS011;41980;45.550;12.070;2022-08-19T14:02:40;1.10;;;0.50;;
49147;SDS011;41980;45.550;12.070;2022-08-19T14:08:42;1.13;;;0.32;;
49147;SDS011;41980;45.550;12.070;2022-08-19T14:14:45;1.85;;;0.60;;
49147;SDS011;41980;45.550;12.070;2022-08-19T14:20:48;2.13;;;0.43;;
49147;SDS011;41980;45.550;12.070;2022-08-19T14:26:50;2.10;;;0.40;;
49147;SDS011;41980;45.550;12.070;2022-08-19T14:32:54;2.20;;;0.70;;
49147;SDS011;41980;45.550;12.070;2022-08-19T14:38:57;2.40;;;0.60;;
49147;SDS011;41980;45.550;12.070;2022-08-19T14:45:01;2.65;;;0.65;;
49147;SDS011;41980;45.550;12.070;2022-08-19T14:51:06;5.35;;;0.80;;
49147;SDS011;41980;45.550;12.070;2022-08-19T14:57:14;1.55;;;0.43;;
49147;SDS011;41980;45.550;12.070;2022-08-19T15:03:16;1.38;;;0.45;;
49147;SDS011;41980;45.550;12.070;2022-08-19T15:09:18;2.25;;;0.68;;
49147;SDS011;41980;45.550;12.070;2022-08-19T15:15:20;2.08;;;0.63;;
49147;SDS011;41980;45.550;12.070;2022-08-19T15:21:24;2.60;;;0.70;;
49147;SDS011;41980;45.550;12.070;2022-08-19T15:27:26;1.98;;;0.80;;
49147;SDS011;41980;45.550;12.070;2022-08-19T15:33:30;1.73;;;0.70;;
49147;SDS011;41980;45.550;12.070;2022-08-19T15:39:36;2.70;;;0.70;;
49147;SDS011;41980;45.550;12.070;2022-08-19T15:45:38;1.63;;;0.60;;
49147;SDS011;41980;45.550;12.070;2022-08-19T15:51:43;2.45;;;0.98;;
49147;SDS011;41980;45.550;12.070;2022-08-19T15:57:47;3.53;;;0.90;;
49147;SDS011;41980;45.550;12.070;2022-08-19T16:03:53;2.45;;;0.68;;
49147;SDS011;41980;45.550;12.070;2022-08-19T16:10:01;3.65;;;0.90;;
49147;SDS011;41980;45.550;12.070;2022-08-19T16:16:05;4.88;;;0.90;;
49147;SDS011;41980;45.550;12.070;2022-08-19T16:22:08;4.20;;;0.90;;
49147;SDS011;41980;45.550;12.070;2022-08-19T16:28:10;2.55;;;1.00;;
49147;SDS011;41980;45.550;12.070;2022-08-19T16:34:12;2.53;;;0.80;;
49147;SDS011;41980;45.550;12.070;2022-08-19T16:40:15;4.07;;;0.80;;
49147;SDS011;41980;45.550;12.070;2022-08-19T16:46:18;1.90;;;0.73;;
49147;SDS011;41980;45.550;12.070;2022-08-19T16:52:22;4.97;;;0.98;;
49147;SDS011;41980;45.550;12.070;2022-08-19T16:58:27;2.22;;;0.80;;
49147;SDS011;41980;45.550;12.070;2022-08-19T17:04:34;1.83;;;0.80;;
49147;SDS011;41980;45.550;12.070;2022-08-19T17:10:38;1.63;;;0.60;;
49147;SDS011;41980;45.550;12.070;2022-08-19T17:16:40;2.20;;;0.80;;
49147;SDS011;41980;45.550;12.070;2022-08-19T17:22:44;3.72;;;1.10;;
49147;SDS011;41980;45.550;12.070;2022-08-19T17:28:49;1.40;;;0.60;;
49147;SDS011;41980;45.550;12.070;2022-08-19T17:34:54;2.22;;;0.80;;
49147;SDS011;41980;45.550;12.070;2022-08-19T17:40:56;2.75;;;0.70;;
49147;SDS011;41980;45.550;12.070;2022-08-19T17:47:05;3.85;;;1.58;;
49147;SDS011;41980;45.550;12.070;2022-08-19T17:53:07;2.30;;;0.95;;
49147;SDS011;41980;45.550;12.070;2022-08-19T17:59:11;2.80;;;0.88;;
49147;SDS011;41980;45.550;12.070;2022-08-19T18:05:15;2.42;;;0.90;;
49147;SDS011;41980;45.550;12.070;2022-08-19T18:11:20;2.95;;;0.80;;
49147;SDS011;41980;45.550;12.070;2022-08-19T18:17:23;3.03;;;0.82;;
49147;SDS011;41980;45.550;12.070;2022-08-19T18:23:26;1.83;;;0.73;;
49147;SDS011;41980;45.550;12.070;2022-08-19T18:29:28;2.88;;;1.00;;
49147;SDS011;41980;45.550;12.070;2022-08-19T18:35:33;2.97;;;1.00;;
49147;SDS011;41980;45.550;12.070;2022-08-19T18:41:39;1.88;;;0.80;;
49147;SDS011;41980;45.550;12.070;2022-08-19T18:47:44;2.70;;;1.00;;
49147;SDS011;41980;45.550;12.070;2022-08-19T18:53:50;3.38;;;1.45;;
49147;SDS011;41980;45.550;12.070;2022-08-19T18:59:53;3.72;;;1.73;;
49147;SDS011;41980;45.550;12.070;2022-08-19T19:05:57;11.10;;;8.43;;
49147;SDS011;41980;45.550;12.070;2022-08-19T19:12:00;10.32;;;8.88;;
49147;SDS011;41980;45.550;12.070;2022-08-19T19:18:05;8.25;;;6.18;;
49147;SDS011;41980;45.550;12.070;2022-08-19T19:24:08;9.30;;;6.90;;
49147;SDS011;41980;45.550;12.070;2022-08-19T19:30:12;8.15;;;6.18;;
49147;SDS011;41980;45.550;12.070;2022-08-19T19:36:18;7.55;;;4.93;;
49147;SDS011;41980;45.550;12.070;2022-08-19T19:42:23;9.15;;;4.32;;
49147;SDS011;41980;45.550;12.070;2022-08-19T19:48:27;6.90;;;4.25;;
49147;SDS011;41980;45.550;12.070;2022-08-19T19:54:30;5.30;;;3.30;;
49147;SDS011;41980;45.550;12.070;2022-08-19T20:00:33;4.35;;;2.97;;
49147;SDS011;41980;45.550;12.070;2022-08-19T20:06:35;4.80;;;2.83;;
49147;SDS011;41980;45.550;12.070;2022-08-19T20:12:37;5.68;;;2.13;;
49147;SDS011;41980;45.550;12.070;2022-08-19T20:18:39;5.00;;;2.60;;
49147;SDS011;41980;45.550;12.070;2022-08-19T20:24:45;3.70;;;2.00;;
49147;SDS011;41980;45.550;12.070;2022-08-19T20:30:48;4.50;;;1.85;;
49147;SDS011;41980;45.550;12.070;2022-08-19T20:36:50;5.72;;;2.10;;
49147;SDS011;41980;45.550;12.070;2022-08-19T20:42:53;4.25;;;2.10;;
49147;SDS011;41980;45.550;12.070;2022-08-19T20:48:57;4.00;;;1.73;;
49147;SDS011;41980;45.550;12.070;2022-08-19T20:55:02;5.35;;;1.90;;
49147;SDS011;41980;45.550;12.070;2022-08-19T21:01:06;3.20;;;1.70;;
49147;SDS011;41980;45.550;12.070;2022-08-19T21:07:11;3.95;;;2.08;;
49147;SDS011;41980;45.550;12.070;2022-08-19T21:13:14;2.70;;;1.48;;
49147;SDS011;41980;45.550;12.070;2022-08-19T21:19:21;2.83;;;1.63;;
49147;SDS011;41980;45.550;12.070;2022-08-19T21:25:31;3.20;;;1.70;;
49147;SDS011;41980;45.550;12.070;2022-08-19T21:31:54;5.35;;;2.17;;
49147;SDS011;41980;45.550;12.070;2022-08-19T21:37:57;3.00;;;2.05;;
49147;SDS011;41980;45.550;12.070;2022-08-19T21:43:59;5.38;;;2.33;;
49147;SDS011;41980;45.550;12.070;2022-08-19T21:50:04;3.70;;;1.70;;
49147;SDS011;41980;45.550;12.070;2022-08-19T21:56:27;2.42;;;1.42;;
49147;SDS011;41980;45.550;12.070;2022-08-19T22:02:30;2.75;;;1.58;;
49147;SDS011;41980;45.550;12.070;2022-08-19T22:08:40;3.55;;;2.03;;
49147;SDS011;41980;45.550;12.070;2022-08-19T22:14:45;3.83;;;2.17;;
49147;SDS011;41980;45.550;12.070;2022-08-19T22:20:48;4.05;;;2.63;;
49147;SDS011;41980;45.550;12.070;2022-08-19T22:26:51;4.80;;;3.03;;
49147;SDS011;41980;45.550;12.070;2022-08-19T22:32:55;4.18;;;2.92;;
49147;SDS011;41980;45.550;12.070;2022-08-19T22:39:03;4.88;;;3.15;;
49147;SDS011;41980;45.550;12.070;2022-08-19T22:45:06;4.85;;;3.30;;
49147;SDS011;41980;45.550;12.070;2022-08-19T22:51:12;7.05;;;5.10;;
49147;SDS011;41980;45.550;12.070;2022-08-19T22:57:18;7.25;;;5.05;;
49147;SDS011;41980;45.550;12.070;2022-08-19T23:03:25;5.72;;;3.78;;
49147;SDS011;41980;45.550;12.070;2022-08-19T23:09:27;5.78;;;2.80;;
49147;SDS011;41980;45.550;12.070;2022-08-19T23:15:30;3.47;;;2.33;;
49147;SDS011;41980;45.550;12.070;2022-08-19T23:21:34;3.72;;;2.25;;
49147;SDS011;41980;45.550;12.070;2022-08-19T23:27:36;4.47;;;2.42;;
49147;SDS011;41980;45.550;12.070;2022-08-19T23:33:42;4.25;;;2.83;;
49147;SDS011;41980;45.550;12.070;2022-08-19T23:39:44;4.35;;;2.75;;
49147;SDS011;41980;45.550;12.070;2022-08-19T23:45:47;3.20;;;2.30;;
49147;SDS011;41980;45.550;12.070;2022-08-19T23:51:49;3.72;;;2.53;;
49147;SDS011;41980;45.550;12.070;2022-08-19T23:57:51;5.25;;;2.63;;
